createdAt,value
2023-01-10T00:00:57.341Z,28.02
2023-01-10T00:03:24.484Z,33.95
2023-01-10T00:05:51.631Z,29.05
2023-01-10T00:08:18.742Z,28.25
2023-01-10T00:10:45.861Z,34.67
2023-01-10T00:13:23.839Z,33.97
2023-01-10T00:15:56.626Z,25.25
2023-01-10T00:18:23.830Z,27.10
2023-01-10T00:20:50.976Z,35.20
2023-01-10T00:23:18.464Z,26.67
2023-01-10T00:25:46.657Z,29.30
2023-01-10T00:28:20.388Z,28.67
2023-01-10T00:31:06.654Z,29.58
2023-01-10T00:33:36.334Z,33.95
2023-01-10T00:36:07.288Z,35.42
2023-01-10T00:38:35.712Z,31.25
2023-01-10T00:41:24.637Z,31.35
2023-01-10T00:43:57.328Z,32.33
2023-01-10T00:46:25.326Z,34.53
2023-01-10T00:48:52.816Z,37.92
2023-01-10T00:51:20.143Z,35.00
2023-01-10T00:53:47.249Z,38.30
2023-01-10T00:56:14.483Z,35.45
2023-01-10T00:58:43.045Z,37.70
2023-01-10T01:01:10.698Z,35.20
2023-01-10T01:03:37.908Z,36.75
2023-01-10T01:06:07.200Z,32.63
2023-01-10T01:08:34.382Z,37.50
2023-01-10T01:11:02.028Z,36.60
2023-01-10T01:13:29.181Z,39.72
2023-01-10T01:16:00.252Z,35.78
2023-01-10T01:18:28.436Z,37.28
2023-01-10T01:20:57.965Z,37.92
2023-01-10T01:23:25.212Z,35.97
2023-01-10T01:25:53.910Z,35.58
2023-01-10T01:28:21.901Z,34.85
2023-01-10T01:30:50.052Z,34.42
2023-01-10T01:33:18.769Z,31.55
2023-01-10T01:35:48.985Z,34.55
2023-01-10T01:38:17.778Z,32.95
2023-01-10T01:40:45.110Z,37.63
2023-01-10T01:43:28.568Z,36.10
2023-01-10T01:46:03.024Z,39.97
2023-01-10T01:48:39.863Z,29.70
2023-01-10T01:51:19.005Z,35.35
2023-01-10T01:53:55.754Z,33.92
2023-01-10T01:56:42.730Z,31.30
2023-01-10T01:59:32.417Z,36.63
2023-01-10T02:02:17.580Z,37.17
2023-01-10T02:05:00.479Z,30.30
2023-01-10T02:07:34.352Z,32.80
2023-01-10T02:10:22.041Z,28.85
2023-01-10T02:12:53.633Z,34.03
2023-01-10T02:15:20.929Z,39.42
2023-01-10T02:17:51.345Z,33.58
2023-01-10T02:20:22.910Z,30.65
2023-01-10T02:23:26.523Z,29.52
2023-01-10T02:26:45.814Z,41.50
2023-01-10T02:29:38.589Z,60.78
2023-01-10T02:32:45.502Z,44.55
2023-01-10T02:35:40.571Z,34.10
2023-01-10T02:38:45.549Z,28.38
2023-01-10T02:41:33.676Z,33.75
2023-01-10T02:44:18.776Z,34.78
2023-01-10T02:46:49.201Z,33.60
2023-01-10T02:49:16.414Z,29.30
2023-01-10T02:51:43.550Z,34.10
2023-01-10T02:54:19.292Z,34.58
2023-01-10T02:57:32.697Z,30.30
2023-01-10T03:00:42.492Z,31.05
2023-01-10T03:03:40.585Z,33.08
2023-01-10T03:06:23.098Z,30.45
2023-01-10T03:09:02.374Z,36.63
2023-01-10T03:11:41.571Z,33.03
2023-01-10T03:14:18.887Z,33.65
2023-01-10T03:16:59.980Z,29.23
2023-01-10T03:19:33.717Z,30.40
2023-01-10T03:22:04.757Z,33.63
2023-01-10T03:24:38.812Z,29.23
2023-01-10T03:27:22.423Z,27.50
2023-01-10T03:30:01.359Z,30.67
2023-01-10T03:32:31.757Z,29.23
2023-01-10T03:35:00.780Z,30.70
2023-01-10T03:37:38.729Z,28.83
2023-01-10T03:40:23.122Z,29.13
2023-01-10T03:43:28.453Z,23.92
2023-01-10T03:46:05.764Z,26.17
2023-01-10T03:48:38.097Z,27.98
2023-01-10T03:51:07.844Z,22.95
2023-01-10T03:53:39.157Z,23.25
2023-01-10T03:56:07.676Z,26.92
2023-01-10T03:58:34.885Z,23.52
2023-01-10T04:01:02.423Z,23.77
2023-01-10T04:03:29.622Z,27.30
2023-01-10T04:05:56.735Z,22.95
2023-01-10T04:08:23.884Z,22.75
2023-01-10T04:10:51.114Z,24.02
2023-01-10T04:13:18.322Z,22.05
2023-01-10T04:15:45.475Z,23.27
2023-01-10T04:18:13.028Z,29.30
2023-01-10T04:20:40.250Z,22.50
2023-01-10T04:23:07.374Z,25.98
2023-01-10T04:25:34.550Z,29.60
2023-01-10T04:28:01.765Z,27.35
2023-01-10T04:30:28.910Z,29.25
2023-01-10T04:32:56.206Z,29.15
2023-01-10T04:35:23.360Z,24.55
2023-01-10T04:37:50.514Z,25.85
2023-01-10T04:40:19.659Z,25.85
2023-01-10T04:42:46.925Z,21.75
2023-01-10T04:45:17.582Z,27.10
2023-01-10T04:47:50.523Z,29.02
2023-01-10T04:52:45.036Z,26.45
2023-01-10T04:55:12.194Z,27.63
2023-01-10T04:57:39.336Z,33.97
2023-01-10T05:00:07.817Z,24.70
2023-01-10T05:02:35.029Z,25.92
2023-01-10T05:05:02.388Z,35.60
2023-01-10T05:07:29.525Z,28.85
2023-01-10T05:09:56.649Z,26.23
2023-01-10T05:12:24.072Z,23.27
2023-01-10T05:14:51.210Z,21.50
2023-01-10T05:17:18.349Z,30.60
2023-01-10T05:19:45.484Z,24.25
2023-01-10T05:22:12.705Z,25.58
2023-01-10T05:24:39.832Z,21.38
2023-01-10T05:27:06.953Z,24.90
2023-01-10T05:29:35.111Z,22.08
2023-01-10T05:32:02.314Z,16.83
2023-01-10T05:34:29.507Z,21.42
2023-01-10T05:36:56.687Z,26.27
2023-01-10T05:39:23.951Z,23.13
2023-01-10T05:41:51.111Z,25.70
2023-01-10T05:44:18.283Z,18.58
2023-01-10T05:46:45.435Z,21.70
2023-01-10T05:49:12.559Z,21.60
2023-01-10T05:51:39.694Z,20.55
2023-01-10T05:54:06.829Z,23.58
2023-01-10T05:56:33.946Z,16.83
2023-01-10T05:59:23.530Z,24.80
2023-01-10T06:01:48.282Z,28.13
2023-01-10T06:04:15.505Z,20.95
2023-01-10T06:06:42.680Z,26.42
2023-01-10T06:09:09.784Z,21.23
2023-01-10T06:11:38.803Z,26.48
2023-01-10T06:14:07.668Z,22.80
2023-01-10T06:16:34.881Z,32.33
2023-01-10T06:19:02.047Z,31.38
2023-01-10T06:21:29.185Z,25.05
2023-01-10T06:23:56.325Z,27.27
2023-01-10T06:26:23.649Z,26.38
2023-01-10T06:28:50.766Z,24.10
2023-01-10T06:31:18.016Z,26.08
2023-01-10T06:33:45.444Z,20.33
2023-01-10T06:36:12.644Z,22.45
2023-01-10T06:38:39.780Z,20.38
2023-01-10T06:41:12.908Z,22.70
2023-01-10T06:43:47.340Z,22.80
2023-01-10T06:46:18.341Z,26.92
2023-01-10T06:48:47.180Z,22.80
2023-01-10T06:51:19.151Z,18.17
2023-01-10T06:53:47.772Z,21.50
2023-01-10T06:56:15.044Z,30.27
2023-01-10T06:58:42.168Z,23.35
2023-01-10T07:01:19.999Z,27.42
2023-01-10T07:03:48.055Z,28.48
2023-01-10T07:06:16.015Z,23.00
2023-01-10T07:08:46.098Z,28.42
2023-01-10T07:11:15.469Z,26.58
2023-01-10T07:13:42.621Z,23.58
2023-01-10T07:16:13.666Z,27.98
2023-01-10T07:18:43.166Z,24.77
2023-01-10T07:21:11.381Z,27.42
2023-01-10T07:23:39.366Z,25.95
2023-01-10T07:26:10.259Z,21.58
2023-01-10T07:28:37.676Z,26.00
2023-01-10T07:31:06.341Z,27.52
2023-01-10T07:33:33.532Z,29.98
2023-01-10T07:36:03.336Z,25.45
2023-01-10T07:38:30.569Z,27.33
2023-01-10T07:40:57.691Z,26.10
2023-01-10T07:43:24.809Z,23.42
2023-01-10T07:45:52.010Z,22.08
2023-01-10T07:48:19.177Z,27.02
2023-01-10T07:50:46.380Z,36.03
2023-01-10T07:53:13.631Z,27.10
2023-01-10T07:55:41.126Z,24.73
2023-01-10T07:58:08.352Z,24.70
2023-01-10T08:00:35.770Z,17.85
2023-01-10T08:03:03.268Z,26.95
2023-01-10T08:05:30.551Z,34.15
2023-01-10T08:08:00.081Z,29.77
2023-01-10T08:10:27.663Z,27.80
2023-01-10T08:12:54.989Z,29.27
2023-01-10T08:15:22.730Z,27.48
2023-01-10T08:17:49.897Z,30.92
2023-01-10T08:20:17.486Z,29.60
2023-01-10T08:22:45.085Z,27.67
2023-01-10T08:25:12.274Z,21.77
2023-01-10T08:27:39.579Z,26.40
2023-01-10T08:30:07.692Z,27.20
2023-01-10T08:32:34.817Z,27.65
2023-01-10T08:35:02.032Z,26.55
2023-01-10T08:37:29.263Z,32.13
2023-01-10T08:39:56.466Z,27.42
2023-01-10T08:42:23.816Z,30.20
2023-01-10T08:44:50.937Z,25.67
2023-01-10T08:47:19.031Z,22.67
2023-01-10T08:49:49.635Z,29.35
2023-01-10T08:52:17.288Z,29.10
2023-01-10T08:54:44.503Z,22.15
2023-01-10T08:57:11.913Z,21.85
2023-01-10T08:59:39.027Z,28.17
2023-01-10T09:02:08.517Z,30.40
2023-01-10T09:04:35.723Z,26.02
2023-01-10T09:07:02.954Z,28.90
2023-01-10T09:09:30.141Z,31.27
2023-01-10T09:11:57.675Z,26.30
2023-01-10T09:14:24.834Z,26.63
2023-01-10T09:16:52.379Z,23.50
2023-01-10T09:19:19.490Z,29.02
2023-01-10T09:21:46.625Z,27.58
2023-01-10T09:24:13.737Z,27.10
2023-01-10T09:26:41.409Z,28.45
2023-01-10T09:29:08.557Z,27.50
2023-01-10T09:31:35.738Z,30.05
2023-01-10T09:34:02.992Z,30.05
2023-01-10T09:36:30.224Z,26.40
2023-01-10T09:38:57.457Z,26.15
2023-01-10T09:41:51.130Z,25.48
2023-01-10T09:44:36.401Z,27.90
2023-01-10T09:47:23.355Z,26.23
2023-01-10T09:50:18.995Z,28.75
2023-01-10T09:53:13.575Z,27.95
2023-01-10T09:55:43.307Z,32.17
2023-01-10T09:58:16.579Z,31.25
2023-01-10T10:00:57.711Z,30.25
2023-01-10T10:03:41.045Z,26.13
2023-01-10T10:06:13.443Z,26.73
2023-01-10T10:08:44.247Z,21.40
2023-01-10T10:11:36.233Z,35.05
2023-01-10T10:14:44.454Z,28.85
2023-01-10T10:17:40.548Z,34.38
2023-01-10T10:20:39.772Z,27.17
2023-01-10T10:23:37.657Z,26.15
2023-01-10T10:26:23.899Z,29.25
2023-01-10T10:29:18.999Z,31.92
2023-01-10T10:32:24.559Z,30.20
2023-01-10T10:35:02.003Z,34.75
2023-01-10T10:37:54.045Z,28.30
2023-01-10T10:40:25.917Z,29.90
2023-01-10T10:42:57.005Z,24.50
2023-01-10T10:45:48.930Z,36.65
2023-01-10T10:48:24.830Z,28.27
2023-01-10T10:50:59.906Z,38.47
2023-01-10T10:53:27.461Z,29.63
2023-01-10T10:55:56.230Z,31.80
2023-01-10T10:58:23.816Z,25.10
2023-01-10T11:00:51.111Z,36.47
2023-01-10T11:04:06.210Z,31.15
2023-01-10T11:06:36.987Z,29.00
2023-01-10T11:09:07.160Z,28.15
2023-01-10T11:11:43.751Z,24.13
2023-01-10T11:14:12.796Z,28.75
2023-01-10T11:16:44.820Z,28.13
2023-01-10T11:19:27.252Z,26.77
2023-01-10T11:22:06.004Z,32.00
2023-01-10T11:24:53.377Z,29.85
2023-01-10T11:27:26.334Z,34.22
2023-01-10T11:32:38.473Z,30.70
2023-01-10T11:35:21.843Z,31.55
2023-01-10T11:38:17.921Z,32.40
2023-01-10T11:41:01.735Z,36.28
2023-01-10T11:43:39.271Z,34.10
2023-01-10T11:46:17.469Z,32.28
2023-01-10T11:49:07.808Z,32.55
2023-01-10T11:51:47.933Z,37.83
2023-01-10T11:54:21.334Z,38.10
2023-01-10T11:57:08.302Z,37.90
2023-01-10T11:59:35.795Z,36.47
2023-01-10T12:02:14.908Z,33.30
2023-01-10T12:04:47.566Z,36.95
2023-01-10T12:07:14.764Z,32.03
2023-01-10T12:09:47.699Z,37.15
2023-01-10T12:14:55.152Z,31.98
2023-01-10T12:17:32.173Z,30.20
2023-01-10T12:20:02.379Z,32.00
2023-01-10T12:22:40.891Z,29.85
2023-01-10T12:25:40.409Z,28.58
2023-01-10T12:28:26.032Z,29.80
2023-01-10T12:30:56.729Z,28.92
2023-01-10T12:33:32.743Z,27.73
2023-01-10T12:36:15.831Z,27.90
2023-01-10T12:39:04.049Z,27.33
2023-01-10T12:42:01.558Z,26.83
2023-01-10T12:44:43.429Z,32.92
2023-01-10T12:47:22.140Z,26.55
2023-01-10T12:50:28.963Z,24.33
2023-01-10T12:53:33.836Z,29.52
2023-01-10T12:56:07.773Z,32.30
2023-01-10T12:58:43.938Z,26.58
2023-01-10T13:01:29.853Z,25.30
2023-01-10T13:04:06.323Z,27.85
2023-01-10T13:06:37.888Z,29.88
2023-01-10T13:09:27.603Z,32.90
2023-01-10T13:12:24.267Z,32.88
2023-01-10T13:15:19.737Z,33.15
2023-01-10T13:18:01.584Z,28.60
2023-01-10T13:20:41.390Z,32.35
2023-01-10T13:23:30.767Z,28.83
2023-01-10T13:26:09.105Z,30.02
2023-01-10T13:28:41.416Z,36.47
2023-01-10T13:31:26.376Z,34.57
2023-01-10T13:34:00.154Z,26.52
2023-01-10T13:36:35.650Z,36.60
2023-01-10T13:39:09.063Z,32.97
2023-01-10T13:42:16.708Z,28.48
2023-01-10T13:45:02.123Z,30.38
2023-01-10T13:47:43.191Z,25.20
2023-01-10T13:50:25.521Z,31.92
2023-01-10T13:53:06.932Z,33.07
2023-01-10T13:55:39.968Z,41.88
2023-01-10T14:00:55.588Z,46.42
2023-01-10T14:03:42.354Z,38.60
2023-01-10T14:06:37.728Z,35.05
2023-01-10T14:09:13.656Z,46.15
2023-01-10T14:11:43.702Z,39.83
2023-01-10T14:14:33.623Z,41.88
2023-01-10T14:17:26.010Z,107.05
2023-01-10T14:20:06.344Z,40.05
2023-01-10T14:22:38.191Z,42.53
2023-01-10T14:25:18.813Z,36.85
2023-01-10T14:27:50.699Z,31.15
2023-01-10T14:30:29.482Z,29.20
2023-01-10T14:33:07.779Z,28.85
2023-01-10T14:35:43.500Z,31.65
2023-01-10T14:38:25.987Z,27.80
2023-01-10T14:41:00.551Z,30.17
2023-01-10T14:43:38.678Z,31.50
2023-01-10T14:46:15.837Z,32.47
2023-01-10T14:48:53.323Z,31.35
2023-01-10T14:51:29.894Z,30.08
2023-01-10T14:54:04.125Z,28.38
2023-01-10T14:56:41.750Z,31.55
2023-01-10T14:59:34.214Z,32.00
2023-01-10T15:02:23.958Z,37.42
2023-01-10T15:05:07.528Z,31.23
2023-01-10T15:07:36.377Z,28.25
2023-01-10T15:10:23.047Z,35.47
2023-01-10T15:12:56.127Z,35.15
2023-01-10T15:18:12.918Z,21.92
2023-01-10T15:20:40.303Z,23.92
2023-01-10T15:23:14.992Z,33.13
2023-01-10T15:25:44.093Z,26.42
2023-01-10T15:28:18.022Z,39.13
2023-01-10T15:30:46.877Z,35.42
2023-01-10T15:33:24.288Z,27.45
2023-01-10T15:35:51.407Z,27.23
2023-01-10T15:38:26.400Z,29.88
2023-01-10T15:41:02.614Z,25.95
2023-01-10T15:43:32.079Z,29.52
2023-01-10T15:46:05.525Z,31.67
2023-01-10T15:48:43.827Z,29.02
2023-01-10T15:51:20.795Z,27.00
2023-01-10T15:53:58.850Z,28.15
2023-01-10T15:56:39.545Z,24.65
2023-01-10T15:59:40.788Z,29.88
2023-01-10T16:02:24.601Z,26.85
2023-01-10T16:04:57.742Z,20.02
2023-01-10T16:10:08.369Z,23.52
2023-01-10T16:12:58.481Z,23.70
2023-01-10T16:15:33.019Z,23.73
2023-01-10T16:18:00.212Z,21.70
2023-01-10T16:20:41.321Z,24.83
2023-01-10T16:23:34.267Z,19.85
2023-01-10T16:26:08.977Z,19.23
2023-01-10T16:28:37.492Z,21.75
2023-01-10T16:31:07.106Z,18.33
2023-01-10T16:33:36.797Z,19.38
2023-01-10T16:36:11.533Z,22.88
2023-01-10T16:38:38.684Z,21.88
2023-01-10T16:41:25.762Z,16.20
2023-01-10T16:43:53.828Z,21.40
2023-01-10T16:46:21.802Z,56.15
2023-01-10T16:48:50.017Z,17.92
2023-01-10T16:51:24.270Z,21.40
2023-01-10T16:53:51.821Z,16.45
2023-01-10T16:56:27.342Z,19.83
2023-01-10T16:58:55.432Z,20.40
2023-01-10T17:01:31.831Z,23.70
2023-01-10T17:04:00.348Z,19.45
2023-01-10T17:06:28.620Z,19.08
2023-01-10T17:08:55.935Z,21.40
2023-01-10T17:11:30.804Z,22.33
2023-01-10T17:13:59.495Z,28.10
2023-01-10T17:16:26.898Z,19.42
2023-01-10T17:18:54.024Z,24.17
2023-01-10T17:21:23.102Z,20.30
2023-01-10T17:23:50.839Z,20.70
2023-01-10T17:26:19.717Z,22.40
2023-01-10T17:28:49.393Z,20.33
2023-01-10T17:31:20.339Z,13.90
2023-01-10T17:33:49.082Z,20.45
2023-01-10T17:36:19.178Z,19.25
2023-01-10T17:38:46.869Z,27.50
2023-01-10T17:41:14.547Z,17.75
2023-01-10T17:43:41.680Z,23.05
2023-01-10T17:46:10.818Z,20.15
2023-01-10T17:48:38.317Z,20.05
2023-01-10T17:51:06.079Z,19.23
2023-01-10T17:53:33.489Z,19.33
2023-01-10T17:56:01.675Z,22.48
2023-01-10T17:58:29.010Z,19.27
2023-01-10T18:00:56.354Z,23.10
2023-01-10T18:03:24.161Z,29.25
2023-01-10T18:05:54.687Z,19.52
2023-01-10T18:08:23.413Z,18.15
2023-01-10T18:10:51.554Z,18.25
2023-01-10T18:13:22.704Z,24.30
2023-01-10T18:15:50.137Z,23.00
2023-01-10T18:18:19.069Z,16.40
2023-01-10T18:20:46.687Z,17.80
2023-01-10T18:23:21.706Z,22.70
2023-01-10T18:25:56.415Z,26.40
2023-01-10T18:28:39.615Z,22.08
2023-01-10T18:31:12.440Z,22.77
2023-01-10T18:33:40.138Z,21.08
2023-01-10T18:36:14.717Z,19.80
2023-01-10T18:38:42.483Z,17.95
2023-01-10T18:41:09.806Z,20.00
2023-01-10T18:43:36.925Z,19.75
2023-01-10T18:46:14.495Z,13.93
2023-01-10T18:48:41.648Z,21.70
2023-01-10T18:51:12.292Z,17.60
2023-01-10T18:53:41.342Z,15.48
2023-01-10T18:56:10.156Z,24.08
2023-01-10T18:58:42.155Z,17.17
2023-01-10T19:01:18.801Z,19.50
2023-01-10T19:03:46.584Z,25.08
2023-01-10T19:06:17.055Z,19.88
2023-01-10T19:08:46.517Z,22.92
2023-01-10T19:11:16.659Z,15.85
2023-01-10T19:13:49.629Z,18.65
2023-01-10T19:16:26.321Z,22.80
2023-01-10T19:18:57.477Z,18.83
2023-01-10T19:21:27.085Z,15.40
2023-01-10T19:23:55.783Z,15.73
2023-01-10T19:26:24.397Z,20.35
2023-01-10T19:28:53.012Z,21.98
2023-01-10T19:31:27.545Z,20.65
2023-01-10T19:33:58.998Z,16.52
2023-01-10T19:36:26.522Z,20.65
2023-01-10T19:38:56.433Z,16.00
2023-01-10T19:41:29.402Z,24.40
2023-01-10T19:46:32.084Z,28.38
2023-01-10T19:49:07.597Z,21.35
2023-01-10T19:51:40.811Z,20.90
2023-01-10T19:54:09.235Z,27.73
2023-01-10T19:56:36.486Z,20.30
2023-01-10T19:59:03.688Z,18.08
2023-01-10T20:01:31.994Z,22.35
2023-01-10T20:04:03.044Z,20.10
2023-01-10T20:06:32.772Z,20.10
2023-01-10T20:09:00.130Z,23.67
2023-01-10T20:11:37.381Z,21.98
2023-01-10T20:14:15.034Z,16.35
2023-01-10T20:16:42.864Z,18.20
2023-01-10T20:19:12.154Z,13.80
2023-01-10T20:21:41.611Z,20.90
2023-01-10T20:24:21.014Z,22.65
2023-01-10T20:26:50.368Z,20.20
2023-01-10T20:29:19.558Z,19.00
2023-01-10T20:31:49.660Z,16.27
2023-01-10T20:34:16.896Z,18.33
2023-01-10T20:36:44.057Z,16.23
2023-01-10T20:39:11.241Z,16.70
2023-01-10T20:41:38.413Z,21.30
2023-01-10T20:44:05.653Z,24.63
2023-01-10T20:46:33.882Z,26.30
2023-01-10T20:49:02.875Z,23.67
2023-01-10T20:51:35.115Z,28.33
2023-01-10T20:54:06.919Z,24.50
2023-01-10T20:56:35.320Z,16.17
2023-01-10T20:59:03.150Z,21.17
2023-01-10T21:01:35.172Z,19.05
2023-01-10T21:04:07.098Z,21.02
2023-01-10T21:06:36.044Z,25.38
2023-01-10T21:09:05.297Z,22.70
2023-01-10T21:11:36.718Z,21.65
2023-01-10T21:14:13.056Z,25.42
2023-01-10T21:16:40.256Z,23.75
2023-01-10T21:19:10.569Z,19.65
2023-01-10T21:21:38.355Z,23.65
2023-01-10T21:24:06.220Z,19.98
2023-01-10T21:26:33.490Z,21.30
2023-01-10T21:29:02.374Z,22.73
2023-01-10T21:31:29.590Z,19.42
2023-01-10T21:33:56.775Z,21.83
2023-01-10T21:36:23.977Z,24.02
2023-01-10T21:38:51.147Z,19.63
2023-01-10T21:41:38.794Z,18.90
2023-01-10T21:44:07.975Z,23.08
2023-01-10T21:46:35.648Z,21.48
2023-01-10T21:49:04.345Z,21.67
2023-01-10T21:51:31.715Z,13.18
2023-01-10T21:53:59.353Z,21.70
2023-01-10T21:56:26.505Z,17.25
2023-01-10T21:58:53.677Z,23.98
2023-01-10T22:01:20.977Z,28.58
2023-01-10T22:03:49.459Z,19.17
2023-01-10T22:06:16.727Z,18.90
2023-01-10T22:08:44.234Z,22.95
2023-01-10T22:11:11.742Z,15.65
2023-01-10T22:13:39.395Z,22.25
2023-01-10T22:16:07.151Z,18.30
2023-01-10T22:18:34.408Z,21.70
2023-01-10T22:21:02.179Z,20.17
2023-01-10T22:23:30.776Z,19.23
2023-01-10T22:26:10.895Z,18.23
2023-01-10T22:28:38.372Z,17.05
2023-01-10T22:31:06.256Z,16.17
2023-01-10T22:33:37.099Z,11.32
2023-01-10T22:36:06.846Z,12.82
2023-01-10T22:38:34.513Z,16.45
2023-01-10T22:41:10.239Z,18.00
2023-01-10T22:43:37.636Z,19.20
2023-01-10T22:46:05.914Z,16.33
2023-01-10T22:48:35.534Z,15.57
2023-01-10T22:51:02.753Z,20.92
2023-01-10T22:53:29.887Z,21.88
2023-01-10T22:56:03.205Z,13.50
2023-01-10T22:58:30.620Z,20.85
2023-01-10T23:00:57.998Z,17.10
2023-01-10T23:03:25.172Z,16.48
2023-01-10T23:05:57.287Z,17.50
2023-01-10T23:08:26.869Z,20.20
2023-01-10T23:10:54.518Z,22.50
2023-01-10T23:13:23.321Z,15.38
2023-01-10T23:16:02.518Z,20.00
2023-01-10T23:18:30.439Z,28.13
2023-01-10T23:20:58.102Z,16.77
2023-01-10T23:23:26.903Z,18.58
2023-01-10T23:26:03.336Z,29.58
2023-01-10T23:28:37.229Z,27.38
2023-01-10T23:31:06.478Z,12.40
2023-01-10T23:33:33.890Z,14.98
2023-01-10T23:36:01.301Z,13.07
2023-01-10T23:38:28.755Z,9.73
2023-01-10T23:40:56.363Z,14.02
2023-01-10T23:43:24.348Z,14.10
2023-01-10T23:45:51.818Z,14.88
2023-01-10T23:48:19.907Z,12.23
2023-01-10T23:50:49.654Z,10.45
2023-01-10T23:53:18.045Z,11.85
2023-01-10T23:55:45.535Z,11.07
2023-01-10T23:58:13.333Z,7.90
